Skip Navigation Links Skip Navigation Links

Current Weather

Lewis University, Romeoville, Ill.

For information only: do not use for flight planning or navigation.
Latest weather
Observation time Saturday, August 24, 2019 11:55 PM CDT
Local time Sunday, August 25, 2019 12:12 AM CDT
Flight conditions Visual Meteorological Conditions
Winds
Wind direction East-Southeast (110°)
Wind speed 6 mph
Visibility 10 mi.
Sky condition
Ceiling unlimited
Sky clear
Temperature 61°F
Dewpoint 54°F
Altimeter 30.20 in.Hg
Derived measurements
Relative humidity 80%
Density altitude 675 ft.
Remarks
Fully automated report.
Automated weather observing station with precipitation discriminator.
METAR KLOT 250455Z AUTO 11005KT 10SM CLR 16/13 A3020 RMK AO2 T01600125

Settings

Location code

InnerDrive.Weather 4.0.6770.0 Release CLR 4.0.30319.42000
Copyright ©2018 Inner Drive Technology. All rights reserved. Portions Copyright ©1986-2018 David Braverman.

Find weather

Site navigation


Skip Navigation Links

Place info

Page info

PayPal - The safer, easier way to pay online!

Return home.

Copyright ©2019 Inner Drive Technology. Purveyors of fine, hand-crafted computer software. Page printed 2019-08-25T05:12:01 UTC.